sensor_id;sensor_type;location;lat;lon;timestamp;temperature;humidity
16404;DHT22;8311;50.158;8.642;2022-09-17T00:00:17;21.90;49.20
16404;DHT22;8311;50.158;8.642;2022-09-17T00:03:11;21.90;49.20
16404;DHT22;8311;50.158;8.642;2022-09-17T00:06:07;21.90;49.20
16404;DHT22;8311;50.158;8.642;2022-09-17T00:09:02;21.90;49.10
16404;DHT22;8311;50.158;8.642;2022-09-17T00:11:56;21.90;49.20
16404;DHT22;8311;50.158;8.642;2022-09-17T00:14:49;21.90;49.20
16404;DHT22;8311;50.158;8.642;2022-09-17T00:17:42;21.90;49.10
16404;DHT22;8311;50.158;8.642;2022-09-17T00:20:39;21.90;49.10
16404;DHT22;8311;50.158;8.642;2022-09-17T00:23:33;21.90;49.10
16404;DHT22;8311;50.158;8.642;2022-09-17T00:26:27;21.90;49.00
16404;DHT22;8311;50.158;8.642;2022-09-17T00:29:21;21.90;49.00
16404;DHT22;8311;50.158;8.642;2022-09-17T00:32:14;21.90;49.00
16404;DHT22;8311;50.158;8.642;2022-09-17T00:35:07;21.90;49.00
16404;DHT22;8311;50.158;8.642;2022-09-17T00:38:01;21.90;49.60
16404;DHT22;8311;50.158;8.642;2022-09-17T00:40:54;21.90;48.90
16404;DHT22;8311;50.158;8.642;2022-09-17T00:43:48;21.90;48.90
16404;DHT22;8311;50.158;8.642;2022-09-17T00:46:43;21.90;48.90
16404;DHT22;8311;50.158;8.642;2022-09-17T00:49:37;21.90;48.90
16404;DHT22;8311;50.158;8.642;2022-09-17T00:52:34;21.90;48.80
16404;DHT22;8311;50.158;8.642;2022-09-17T00:55:31;21.90;48.90
16404;DHT22;8311;50.158;8.642;2022-09-17T00:58:26;21.90;48.90
16404;DHT22;8311;50.158;8.642;2022-09-17T01:01:20;21.90;49.40
16404;DHT22;8311;50.158;8.642;2022-09-17T01:04:15;21.90;48.80
16404;DHT22;8311;50.158;8.642;2022-09-17T01:07:11;21.90;48.80
16404;DHT22;8311;50.158;8.642;2022-09-17T01:10:19;21.90;48.80
16404;DHT22;8311;50.158;8.642;2022-09-17T01:13:26;21.90;48.80
16404;DHT22;8311;50.158;8.642;2022-09-17T01:16:28;21.90;48.80
16404;DHT22;8311;50.158;8.642;2022-09-17T01:20:19;21.90;48.70
16404;DHT22;8311;50.158;8.642;2022-09-17T01:23:59;21.90;48.70
16404;DHT22;8311;50.158;8.642;2022-09-17T01:27:32;21.90;48.80
16404;DHT22;8311;50.158;8.642;2022-09-17T01:30:58;21.90;48.70
16404;DHT22;8311;50.158;8.642;2022-09-17T01:33:59;21.90;48.70
16404;DHT22;8311;50.158;8.642;2022-09-17T01:37:00;21.90;48.70
16404;DHT22;8311;50.158;8.642;2022-09-17T01:39:59;21.90;48.70
16404;DHT22;8311;50.158;8.642;2022-09-17T01:42:58;21.90;49.20
16404;DHT22;8311;50.158;8.642;2022-09-17T01:46:01;21.90;48.60
16404;DHT22;8311;50.158;8.642;2022-09-17T01:48:59;21.80;48.50
16404;DHT22;8311;50.158;8.642;2022-09-17T01:51:54;21.90;48.60
16404;DHT22;8311;50.158;8.642;2022-09-17T01:54:49;21.80;48.50
16404;DHT22;8311;50.158;8.642;2022-09-17T01:57:46;21.80;48.50
16404;DHT22;8311;50.158;8.642;2022-09-17T02:00:43;21.80;48.50
16404;DHT22;8311;50.158;8.642;2022-09-17T02:03:44;21.90;48.60
16404;DHT22;8311;50.158;8.642;2022-09-17T02:06:41;21.90;48.60
16404;DHT22;8311;50.158;8.642;2022-09-17T02:09:39;21.90;48.60
16404;DHT22;8311;50.158;8.642;2022-09-17T02:12:37;21.90;48.60
16404;DHT22;8311;50.158;8.642;2022-09-17T02:15:36;21.90;48.60
16404;DHT22;8311;50.158;8.642;2022-09-17T02:18:36;21.90;48.60
16404;DHT22;8311;50.158;8.642;2022-09-17T02:21:38;21.90;48.60
16404;DHT22;8311;50.158;8.642;2022-09-17T02:24:36;21.90;48.60
16404;DHT22;8311;50.158;8.642;2022-09-17T02:27:41;21.90;48.60
16404;DHT22;8311;50.158;8.642;2022-09-17T02:30:36;21.80;48.50
16404;DHT22;8311;50.158;8.642;2022-09-17T02:33:30;21.80;48.50
16404;DHT22;8311;50.158;8.642;2022-09-17T02:36:24;21.90;48.60
16404;DHT22;8311;50.158;8.642;2022-09-17T02:39:19;21.90;48.60
16404;DHT22;8311;50.158;8.642;2022-09-17T02:42:20;21.80;48.60
16404;DHT22;8311;50.158;8.642;2022-09-17T02:45:20;21.80;48.60
16404;DHT22;8311;50.158;8.642;2022-09-17T02:48:27;21.80;48.60
16404;DHT22;8311;50.158;8.642;2022-09-17T02:51:32;21.80;48.60
16404;DHT22;8311;50.158;8.642;2022-09-17T02:54:40;21.80;48.50
16404;DHT22;8311;50.158;8.642;2022-09-17T02:57:38;21.80;48.50
16404;DHT22;8311;50.158;8.642;2022-09-17T03:00:33;21.80;48.50
16404;DHT22;8311;50.158;8.642;2022-09-17T03:03:30;21.80;48.60
16404;DHT22;8311;50.158;8.642;2022-09-17T03:06:24;21.80;48.60
16404;DHT22;8311;50.158;8.642;2022-09-17T03:09:18;21.80;48.50
16404;DHT22;8311;50.158;8.642;2022-09-17T03:12:13;21.80;48.50
16404;DHT22;8311;50.158;8.642;2022-09-17T03:15:07;21.80;48.60
16404;DHT22;8311;50.158;8.642;2022-09-17T03:18:01;21.80;48.60
16404;DHT22;8311;50.158;8.642;2022-09-17T03:20:54;21.80;48.60
16404;DHT22;8311;50.158;8.642;2022-09-17T03:23:47;21.80;48.50
16404;DHT22;8311;50.158;8.642;2022-09-17T03:26:40;21.80;48.60
16404;DHT22;8311;50.158;8.642;2022-09-17T03:29:34;21.80;48.60
16404;DHT22;8311;50.158;8.642;2022-09-17T03:32:27;21.80;48.60
16404;DHT22;8311;50.158;8.642;2022-09-17T03:35:20;21.80;48.60
16404;DHT22;8311;50.158;8.642;2022-09-17T03:38:13;21.80;48.60
16404;DHT22;8311;50.158;8.642;2022-09-17T03:41:06;21.80;48.60
16404;DHT22;8311;50.158;8.642;2022-09-17T03:43:59;21.80;48.60
16404;DHT22;8311;50.158;8.642;2022-09-17T03:46:53;21.80;48.60
16404;DHT22;8311;50.158;8.642;2022-09-17T03:49:47;21.80;48.60
16404;DHT22;8311;50.158;8.642;2022-09-17T03:52:42;21.80;48.60
16404;DHT22;8311;50.158;8.642;2022-09-17T03:55:37;21.80;48.60
16404;DHT22;8311;50.158;8.642;2022-09-17T03:58:30;21.80;48.60
16404;DHT22;8311;50.158;8.642;2022-09-17T04:01:24;21.80;48.60
16404;DHT22;8311;50.158;8.642;2022-09-17T04:04:18;21.80;48.60
16404;DHT22;8311;50.158;8.642;2022-09-17T04:07:11;21.80;48.60
16404;DHT22;8311;50.158;8.642;2022-09-17T04:10:05;21.80;48.60
16404;DHT22;8311;50.158;8.642;2022-09-17T04:12:58;21.70;48.60
16404;DHT22;8311;50.158;8.642;2022-09-17T04:15:51;21.80;48.70
16404;DHT22;8311;50.158;8.642;2022-09-17T04:18:44;21.80;48.70
16404;DHT22;8311;50.158;8.642;2022-09-17T04:21:39;21.80;48.70
16404;DHT22;8311;50.158;8.642;2022-09-17T04:24:32;21.80;48.70
16404;DHT22;8311;50.158;8.642;2022-09-17T04:27:25;21.80;48.70
16404;DHT22;8311;50.158;8.642;2022-09-17T04:30:18;21.80;48.60
16404;DHT22;8311;50.158;8.642;2022-09-17T04:33:11;21.80;48.60
16404;DHT22;8311;50.158;8.642;2022-09-17T04:36:04;21.80;48.60
16404;DHT22;8311;50.158;8.642;2022-09-17T04:38:58;21.70;48.60
16404;DHT22;8311;50.158;8.642;2022-09-17T04:41:51;21.80;48.60
16404;DHT22;8311;50.158;8.642;2022-09-17T04:44:45;21.80;48.60
16404;DHT22;8311;50.158;8.642;2022-09-17T04:47:38;21.80;48.60
16404;DHT22;8311;50.158;8.642;2022-09-17T04:50:31;21.80;48.60
16404;DHT22;8311;50.158;8.642;2022-09-17T04:53:24;21.70;48.60
16404;DHT22;8311;50.158;8.642;2022-09-17T04:56:18;21.80;48.60
16404;DHT22;8311;50.158;8.642;2022-09-17T04:59:12;21.70;48.60
16404;DHT22;8311;50.158;8.642;2022-09-17T05:02:05;21.70;48.60
16404;DHT22;8311;50.158;8.642;2022-09-17T05:04:58;21.70;48.60
16404;DHT22;8311;50.158;8.642;2022-09-17T05:07:51;21.70;48.60
16404;DHT22;8311;50.158;8.642;2022-09-17T05:10:44;21.70;48.60
16404;DHT22;8311;50.158;8.642;2022-09-17T05:13:38;21.70;48.70
16404;DHT22;8311;50.158;8.642;2022-09-17T05:16:31;21.70;48.70
16404;DHT22;8311;50.158;8.642;2022-09-17T05:19:24;21.70;48.70
16404;DHT22;8311;50.158;8.642;2022-09-17T05:22:17;21.70;48.60
16404;DHT22;8311;50.158;8.642;2022-09-17T05:25:13;21.70;48.60
16404;DHT22;8311;50.158;8.642;2022-09-17T05:28:07;21.70;48.60
16404;DHT22;8311;50.158;8.642;2022-09-17T05:31:02;21.70;48.60
16404;DHT22;8311;50.158;8.642;2022-09-17T05:33:56;21.70;48.60
16404;DHT22;8311;50.158;8.642;2022-09-17T05:36:49;21.70;48.70
16404;DHT22;8311;50.158;8.642;2022-09-17T05:39:42;21.70;48.60
16404;DHT22;8311;50.158;8.642;2022-09-17T05:42:35;21.70;48.60
16404;DHT22;8311;50.158;8.642;2022-09-17T05:45:29;21.70;48.60
16404;DHT22;8311;50.158;8.642;2022-09-17T05:48:23;21.70;48.60
16404;DHT22;8311;50.158;8.642;2022-09-17T05:51:16;21.70;48.50
16404;DHT22;8311;50.158;8.642;2022-09-17T05:54:10;21.70;48.60
16404;DHT22;8311;50.158;8.642;2022-09-17T05:57:03;21.70;48.50
16404;DHT22;8311;50.158;8.642;2022-09-17T05:59:56;21.70;48.50
16404;DHT22;8311;50.158;8.642;2022-09-17T06:02:53;21.70;48.50
16404;DHT22;8311;50.158;8.642;2022-09-17T06:05:52;21.70;48.50
16404;DHT22;8311;50.158;8.642;2022-09-17T06:08:45;21.70;48.60
16404;DHT22;8311;50.158;8.642;2022-09-17T06:11:38;21.70;48.60
16404;DHT22;8311;50.158;8.642;2022-09-17T06:14:31;21.70;48.60
16404;DHT22;8311;50.158;8.642;2022-09-17T06:17:24;21.70;48.60
16404;DHT22;8311;50.158;8.642;2022-09-17T06:20:17;21.70;49.20
16404;DHT22;8311;50.158;8.642;2022-09-17T06:23:12;21.70;48.60
16404;DHT22;8311;50.158;8.642;2022-09-17T06:26:06;21.70;48.60
16404;DHT22;8311;50.158;8.642;2022-09-17T06:28:59;21.70;48.60
16404;DHT22;8311;50.158;8.642;2022-09-17T06:31:52;21.70;48.60
16404;DHT22;8311;50.158;8.642;2022-09-17T06:34:46;21.70;48.70
16404;DHT22;8311;50.158;8.642;2022-09-17T06:37:40;21.70;48.70
16404;DHT22;8311;50.158;8.642;2022-09-17T06:40:34;21.70;48.70
16404;DHT22;8311;50.158;8.642;2022-09-17T06:43:29;21.70;48.70
16404;DHT22;8311;50.158;8.642;2022-09-17T06:46:22;21.70;48.60
16404;DHT22;8311;50.158;8.642;2022-09-17T06:49:17;21.70;48.60
16404;DHT22;8311;50.158;8.642;2022-09-17T06:52:10;21.70;48.50
16404;DHT22;8311;50.158;8.642;2022-09-17T06:55:04;21.70;48.50
16404;DHT22;8311;50.158;8.642;2022-09-17T06:57:59;21.70;48.40
16404;DHT22;8311;50.158;8.642;2022-09-17T07:00:57;21.70;48.40
16404;DHT22;8311;50.158;8.642;2022-09-17T07:03:50;21.70;48.40
16404;DHT22;8311;50.158;8.642;2022-09-17T07:06:44;21.70;48.40
16404;DHT22;8311;50.158;8.642;2022-09-17T07:09:37;21.70;48.40
16404;DHT22;8311;50.158;8.642;2022-09-17T07:12:30;21.70;48.50
16404;DHT22;8311;50.158;8.642;2022-09-17T07:15:25;21.70;48.50
16404;DHT22;8311;50.158;8.642;2022-09-17T07:18:18;21.60;48.50
16404;DHT22;8311;50.158;8.642;2022-09-17T07:21:11;21.60;48.50
16404;DHT22;8311;50.158;8.642;2022-09-17T07:24:05;21.60;48.50
16404;DHT22;8311;50.158;8.642;2022-09-17T07:26:57;21.70;48.60
16404;DHT22;8311;50.158;8.642;2022-09-17T07:29:51;21.60;48.50
16404;DHT22;8311;50.158;8.642;2022-09-17T07:32:44;21.60;48.60
16404;DHT22;8311;50.158;8.642;2022-09-17T07:35:37;21.60;48.60
16404;DHT22;8311;50.158;8.642;2022-09-17T07:38:31;21.60;48.70
16404;DHT22;8311;50.158;8.642;2022-09-17T07:41:25;21.60;48.70
16404;DHT22;8311;50.158;8.642;2022-09-17T07:44:18;21.60;48.70
16404;DHT22;8311;50.158;8.642;2022-09-17T07:47:12;21.60;48.70
16404;DHT22;8311;50.158;8.642;2022-09-17T07:50:08;21.60;48.80
16404;DHT22;8311;50.158;8.642;2022-09-17T07:53:01;21.60;48.70
16404;DHT22;8311;50.158;8.642;2022-09-17T07:55:56;21.60;48.60
16404;DHT22;8311;50.158;8.642;2022-09-17T07:58:50;21.60;47.20
16404;DHT22;8311;50.158;8.642;2022-09-17T08:01:42;21.60;48.50
16404;DHT22;8311;50.158;8.642;2022-09-17T08:04:36;21.60;48.60
16404;DHT22;8311;50.158;8.642;2022-09-17T08:07:30;21.60;48.60
16404;DHT22;8311;50.158;8.642;2022-09-17T08:10:23;21.60;48.60
16404;DHT22;8311;50.158;8.642;2022-09-17T08:13:17;21.60;48.50
16404;DHT22;8311;50.158;8.642;2022-09-17T08:16:11;21.60;48.50
16404;DHT22;8311;50.158;8.642;2022-09-17T08:19:05;21.60;48.40
16404;DHT22;8311;50.158;8.642;2022-09-17T08:21:57;21.60;48.40
16404;DHT22;8311;50.158;8.642;2022-09-17T08:24:52;21.60;48.40
16404;DHT22;8311;50.158;8.642;2022-09-17T08:27:45;21.60;48.40
16404;DHT22;8311;50.158;8.642;2022-09-17T08:30:37;21.60;48.30
16404;DHT22;8311;50.158;8.642;2022-09-17T08:33:31;21.60;48.30
16404;DHT22;8311;50.158;8.642;2022-09-17T08:36:24;21.60;48.30
16404;DHT22;8311;50.158;8.642;2022-09-17T08:39:18;21.60;48.20
16404;DHT22;8311;50.158;8.642;2022-09-17T08:42:19;21.60;47.80
16404;DHT22;8311;50.158;8.642;2022-09-17T08:45:14;21.60;47.50
16404;DHT22;8311;50.158;8.642;2022-09-17T08:48:12;21.60;47.20
16404;DHT22;8311;50.158;8.642;2022-09-17T08:51:14;21.60;46.60
16404;DHT22;8311;50.158;8.642;2022-09-17T08:54:17;21.60;47.90
16404;DHT22;8311;50.158;8.642;2022-09-17T08:57:20;21.60;48.20
16404;DHT22;8311;50.158;8.642;2022-09-17T09:00:19;21.60;46.00
16404;DHT22;8311;50.158;8.642;2022-09-17T09:03:24;21.60;45.80
16404;DHT22;8311;50.158;8.642;2022-09-17T09:06:23;21.60;45.40
16404;DHT22;8311;50.158;8.642;2022-09-17T09:09:19;21.60;45.70
16404;DHT22;8311;50.158;8.642;2022-09-17T09:12:20;21.70;45.70
16404;DHT22;8311;50.158;8.642;2022-09-17T09:15:24;21.60;46.00
16404;DHT22;8311;50.158;8.642;2022-09-17T09:18:22;21.70;45.50
16404;DHT22;8311;50.158;8.642;2022-09-17T09:21:24;21.70;45.80
16404;DHT22;8311;50.158;8.642;2022-09-17T09:24:22;21.60;46.80
16404;DHT22;8311;50.158;8.642;2022-09-17T09:27:18;21.70;47.70
16404;DHT22;8311;50.158;8.642;2022-09-17T09:30:15;21.70;48.00
16404;DHT22;8311;50.158;8.642;2022-09-17T09:33:12;21.60;48.10
16404;DHT22;8311;50.158;8.642;2022-09-17T09:36:07;21.70;47.10
16404;DHT22;8311;50.158;8.642;2022-09-17T09:39:10;21.60;46.10
16404;DHT22;8311;50.158;8.642;2022-09-17T09:42:09;21.60;46.30
16404;DHT22;8311;50.158;8.642;2022-09-17T09:45:14;21.60;47.80
16404;DHT22;8311;50.158;8.642;2022-09-17T09:48:13;21.60;48.10
16404;DHT22;8311;50.158;8.642;2022-09-17T09:51:17;21.60;48.20
16404;DHT22;8311;50.158;8.642;2022-09-17T09:54:26;21.60;48.30
16404;DHT22;8311;50.158;8.642;2022-09-17T09:57:32;21.60;48.20
16404;DHT22;8311;50.158;8.642;2022-09-17T10:00:30;21.60;48.20
16404;DHT22;8311;50.158;8.642;2022-09-17T10:03:27;21.60;48.20
16404;DHT22;8311;50.158;8.642;2022-09-17T10:06:22;21.60;48.30
16404;DHT22;8311;50.158;8.642;2022-09-17T10:09:17;21.60;48.30
16404;DHT22;8311;50.158;8.642;2022-09-17T10:12:17;21.60;48.30
16404;DHT22;8311;50.158;8.642;2022-09-17T10:15:24;21.60;48.30
16404;DHT22;8311;50.158;8.642;2022-09-17T10:18:20;21.60;48.30
16404;DHT22;8311;50.158;8.642;2022-09-17T10:21:21;21.60;48.20
16404;DHT22;8311;50.158;8.642;2022-09-17T10:24:21;21.60;48.20
16404;DHT22;8311;50.158;8.642;2022-09-17T10:27:17;21.60;48.30
16404;DHT22;8311;50.158;8.642;2022-09-17T10:30:14;21.60;48.20
16404;DHT22;8311;50.158;8.642;2022-09-17T10:33:20;21.60;48.20
16404;DHT22;8311;50.158;8.642;2022-09-17T10:36:14;21.60;48.20
16404;DHT22;8311;50.158;8.642;2022-09-17T10:39:21;21.60;48.10
16404;DHT22;8311;50.158;8.642;2022-09-17T10:42:18;21.60;48.10
16404;DHT22;8311;50.158;8.642;2022-09-17T10:45:23;21.60;48.10
16404;DHT22;8311;50.158;8.642;2022-09-17T10:48:19;21.60;48.10
16404;DHT22;8311;50.158;8.642;2022-09-17T10:51:20;21.60;48.00
16404;DHT22;8311;50.158;8.642;2022-09-17T10:54:25;21.60;48.00
16404;DHT22;8311;50.158;8.642;2022-09-17T10:57:36;21.60;48.00
16404;DHT22;8311;50.158;8.642;2022-09-17T11:00:46;21.60;48.00
16404;DHT22;8311;50.158;8.642;2022-09-17T11:03:54;21.60;48.00
16404;DHT22;8311;50.158;8.642;2022-09-17T11:07:10;21.60;48.00
16404;DHT22;8311;50.158;8.642;2022-09-17T11:10:11;21.60;48.10
16404;DHT22;8311;50.158;8.642;2022-09-17T11:13:14;21.60;48.10
16404;DHT22;8311;50.158;8.642;2022-09-17T11:16:17;21.60;48.20
16404;DHT22;8311;50.158;8.642;2022-09-17T11:19:22;21.60;46.60
16404;DHT22;8311;50.158;8.642;2022-09-17T11:22:22;21.60;46.70
16404;DHT22;8311;50.158;8.642;2022-09-17T11:25:31;21.60;46.00
16404;DHT22;8311;50.158;8.642;2022-09-17T11:28:45;21.60;46.70
16404;DHT22;8311;50.158;8.642;2022-09-17T11:31:48;21.60;46.60
16404;DHT22;8311;50.158;8.642;2022-09-17T11:34:53;21.60;45.60
16404;DHT22;8311;50.158;8.642;2022-09-17T11:37:54;21.60;46.20
16404;DHT22;8311;50.158;8.642;2022-09-17T11:40:57;21.60;46.10
16404;DHT22;8311;50.158;8.642;2022-09-17T11:43:59;21.60;46.40
16404;DHT22;8311;50.158;8.642;2022-09-17T11:46:57;21.60;47.50
16404;DHT22;8311;50.158;8.642;2022-09-17T11:49:58;21.60;48.00
16404;DHT22;8311;50.158;8.642;2022-09-17T11:53:03;21.60;48.20
16404;DHT22;8311;50.158;8.642;2022-09-17T11:56:01;21.60;48.30
16404;DHT22;8311;50.158;8.642;2022-09-17T11:58:59;21.60;48.20
16404;DHT22;8311;50.158;8.642;2022-09-17T12:01:55;21.60;48.30
16404;DHT22;8311;50.158;8.642;2022-09-17T12:04:57;21.60;48.30
16404;DHT22;8311;50.158;8.642;2022-09-17T12:07:55;21.60;48.30
16404;DHT22;8311;50.158;8.642;2022-09-17T12:10:54;21.60;48.40
16404;DHT22;8311;50.158;8.642;2022-09-17T12:13:53;21.60;48.30
16404;DHT22;8311;50.158;8.642;2022-09-17T12:16:52;21.50;47.90
16404;DHT22;8311;50.158;8.642;2022-09-17T12:19:50;21.60;47.80
16404;DHT22;8311;50.158;8.642;2022-09-17T12:22:49;21.60;47.70
16404;DHT22;8311;50.158;8.642;2022-09-17T12:25:57;21.60;47.40
16404;DHT22;8311;50.158;8.642;2022-09-17T12:29:02;21.60;47.40
16404;DHT22;8311;50.158;8.642;2022-09-17T12:32:08;21.60;47.40
16404;DHT22;8311;50.158;8.642;2022-09-17T12:35:15;21.60;46.90
16404;DHT22;8311;50.158;8.642;2022-09-17T12:38:26;21.60;46.60
16404;DHT22;8311;50.158;8.642;2022-09-17T12:41:28;21.60;47.10
16404;DHT22;8311;50.158;8.642;2022-09-17T12:44:35;21.70;46.90
16404;DHT22;8311;50.158;8.642;2022-09-17T12:47:46;21.60;46.80
16404;DHT22;8311;50.158;8.642;2022-09-17T12:50:57;21.60;47.00
16404;DHT22;8311;50.158;8.642;2022-09-17T12:54:04;21.60;47.10
16404;DHT22;8311;50.158;8.642;2022-09-17T12:57:04;21.60;46.40
16404;DHT22;8311;50.158;8.642;2022-09-17T13:00:03;21.60;45.90
16404;DHT22;8311;50.158;8.642;2022-09-17T13:03:05;21.60;46.60
16404;DHT22;8311;50.158;8.642;2022-09-17T13:09:44;21.60;46.60
16404;DHT22;8311;50.158;8.642;2022-09-17T13:12:43;21.60;47.80
16404;DHT22;8311;50.158;8.642;2022-09-17T13:15:45;21.60;47.70
16404;DHT22;8311;50.158;8.642;2022-09-17T13:18:53;21.60;48.10
16404;DHT22;8311;50.158;8.642;2022-09-17T13:22:15;21.60;48.40
16404;DHT22;8311;50.158;8.642;2022-09-17T13:25:13;21.60;48.50
16404;DHT22;8311;50.158;8.642;2022-09-17T13:28:08;21.60;48.40
16404;DHT22;8311;50.158;8.642;2022-09-17T13:31:03;21.60;48.70
16404;DHT22;8311;50.158;8.642;2022-09-17T13:33:57;21.60;48.70
16404;DHT22;8311;50.158;8.642;2022-09-17T13:36:51;21.60;48.70
16404;DHT22;8311;50.158;8.642;2022-09-17T13:39:47;21.60;48.80
16404;DHT22;8311;50.158;8.642;2022-09-17T13:42:45;21.60;48.80
16404;DHT22;8311;50.158;8.642;2022-09-17T13:46:08;21.60;48.80
16404;DHT22;8311;50.158;8.642;2022-09-17T13:49:12;21.60;48.80
16404;DHT22;8311;50.158;8.642;2022-09-17T13:52:05;21.60;48.80
16404;DHT22;8311;50.158;8.642;2022-09-17T13:55:04;21.60;48.80
16404;DHT22;8311;50.158;8.642;2022-09-17T13:57:59;21.60;48.80
16404;DHT22;8311;50.158;8.642;2022-09-17T14:00:56;21.60;48.80
16404;DHT22;8311;50.158;8.642;2022-09-17T14:03:54;21.60;48.80
16404;DHT22;8311;50.158;8.642;2022-09-17T14:06:49;21.60;48.80
16404;DHT22;8311;50.158;8.642;2022-09-17T14:09:52;21.60;48.80
16404;DHT22;8311;50.158;8.642;2022-09-17T14:12:54;21.60;48.80
16404;DHT22;8311;50.158;8.642;2022-09-17T14:15:58;21.60;48.80
16404;DHT22;8311;50.158;8.642;2022-09-17T14:18:58;21.60;48.80
16404;DHT22;8311;50.158;8.642;2022-09-17T14:21:59;21.60;48.80
16404;DHT22;8311;50.158;8.642;2022-09-17T14:24:53;21.60;48.80
16404;DHT22;8311;50.158;8.642;2022-09-17T14:27:52;21.60;48.80
16404;DHT22;8311;50.158;8.642;2022-09-17T14:30:47;21.50;48.80
16404;DHT22;8311;50.158;8.642;2022-09-17T14:33:44;21.60;48.80
16404;DHT22;8311;50.158;8.642;2022-09-17T14:36:38;21.60;48.80
16404;DHT22;8311;50.158;8.642;2022-09-17T14:39:36;21.60;48.80
16404;DHT22;8311;50.158;8.642;2022-09-17T14:42:34;21.50;48.80
16404;DHT22;8311;50.158;8.642;2022-09-17T14:45:30;21.60;49.50
16404;DHT22;8311;50.158;8.642;2022-09-17T14:48:29;21.60;48.90
16404;DHT22;8311;50.158;8.642;2022-09-17T14:51:26;21.50;48.80
16404;DHT22;8311;50.158;8.642;2022-09-17T14:54:24;21.60;48.90
16404;DHT22;8311;50.158;8.642;2022-09-17T14:57:23;21.60;48.90
16404;DHT22;8311;50.158;8.642;2022-09-17T15:00:22;21.60;48.90
16404;DHT22;8311;50.158;8.642;2022-09-17T15:03:20;21.60;48.90
16404;DHT22;8311;50.158;8.642;2022-09-17T15:06:19;21.50;48.90
16404;DHT22;8311;50.158;8.642;2022-09-17T15:09:15;21.50;48.90
16404;DHT22;8311;50.158;8.642;2022-09-17T15:12:14;21.50;48.90
16404;DHT22;8311;50.158;8.642;2022-09-17T15:15:16;21.50;48.90
16404;DHT22;8311;50.158;8.642;2022-09-17T15:18:12;21.50;48.90
16404;DHT22;8311;50.158;8.642;2022-09-17T15:21:16;21.50;48.90
16404;DHT22;8311;50.158;8.642;2022-09-17T15:24:27;21.50;48.90
16404;DHT22;8311;50.158;8.642;2022-09-17T15:27:28;21.50;48.90
16404;DHT22;8311;50.158;8.642;2022-09-17T15:30:24;21.60;49.00
16404;DHT22;8311;50.158;8.642;2022-09-17T15:33:17;21.50;49.00
16404;DHT22;8311;50.158;8.642;2022-09-17T15:36:18;21.50;49.00
16404;DHT22;8311;50.158;8.642;2022-09-17T15:39:30;21.50;49.00
16404;DHT22;8311;50.158;8.642;2022-09-17T15:42:26;21.50;49.00
16404;DHT22;8311;50.158;8.642;2022-09-17T15:45:21;21.50;49.00
16404;DHT22;8311;50.158;8.642;2022-09-17T15:48:33;21.50;49.00
16404;DHT22;8311;50.158;8.642;2022-09-17T15:51:27;21.50;49.00
16404;DHT22;8311;50.158;8.642;2022-09-17T15:54:29;21.50;49.00
16404;DHT22;8311;50.158;8.642;2022-09-17T15:57:25;21.50;49.10
16404;DHT22;8311;50.158;8.642;2022-09-17T16:00:19;21.50;49.10
16404;DHT22;8311;50.158;8.642;2022-09-17T16:07:02;21.50;49.10
16404;DHT22;8311;50.158;8.642;2022-09-17T16:10:11;21.50;49.00
16404;DHT22;8311;50.158;8.642;2022-09-17T16:13:04;21.50;49.00
16404;DHT22;8311;50.158;8.642;2022-09-17T16:15:58;21.50;49.00
16404;DHT22;8311;50.158;8.642;2022-09-17T16:18:51;21.50;49.00
16404;DHT22;8311;50.158;8.642;2022-09-17T16:21:44;21.50;49.00
16404;DHT22;8311;50.158;8.642;2022-09-17T16:24:37;21.50;49.00
16404;DHT22;8311;50.158;8.642;2022-09-17T16:27:34;21.50;49.00
16404;DHT22;8311;50.158;8.642;2022-09-17T16:30:30;21.50;48.90
16404;DHT22;8311;50.158;8.642;2022-09-17T16:33:23;21.50;48.90
16404;DHT22;8311;50.158;8.642;2022-09-17T16:36:19;21.50;49.00
16404;DHT22;8311;50.158;8.642;2022-09-17T16:39:11;21.50;49.00
16404;DHT22;8311;50.158;8.642;2022-09-17T16:42:05;21.50;48.90
16404;DHT22;8311;50.158;8.642;2022-09-17T16:44:59;21.50;49.00
16404;DHT22;8311;50.158;8.642;2022-09-17T16:47:54;21.50;49.00
16404;DHT22;8311;50.158;8.642;2022-09-17T16:50:47;21.50;48.90
16404;DHT22;8311;50.158;8.642;2022-09-17T16:53:40;21.50;48.90
16404;DHT22;8311;50.158;8.642;2022-09-17T16:56:33;21.50;48.90
16404;DHT22;8311;50.158;8.642;2022-09-17T16:59:26;21.50;48.90
16404;DHT22;8311;50.158;8.642;2022-09-17T17:02:20;21.50;48.90
16404;DHT22;8311;50.158;8.642;2022-09-17T17:05:13;21.50;48.80
16404;DHT22;8311;50.158;8.642;2022-09-17T17:08:07;21.50;48.80
16404;DHT22;8311;50.158;8.642;2022-09-17T17:11:01;21.50;48.80
16404;DHT22;8311;50.158;8.642;2022-09-17T17:13:54;21.40;48.80
16404;DHT22;8311;50.158;8.642;2022-09-17T17:16:48;21.50;48.90
16404;DHT22;8311;50.158;8.642;2022-09-17T17:19:42;21.50;48.90
16404;DHT22;8311;50.158;8.642;2022-09-17T17:22:36;21.50;48.80
16404;DHT22;8311;50.158;8.642;2022-09-17T17:25:30;21.50;48.80
16404;DHT22;8311;50.158;8.642;2022-09-17T17:28:24;21.50;48.80
16404;DHT22;8311;50.158;8.642;2022-09-17T17:31:17;21.50;48.80
16404;DHT22;8311;50.158;8.642;2022-09-17T17:34:10;21.50;48.80
16404;DHT22;8311;50.158;8.642;2022-09-17T17:37:04;21.50;48.80
16404;DHT22;8311;50.158;8.642;2022-09-17T17:39:57;21.50;48.80
16404;DHT22;8311;50.158;8.642;2022-09-17T17:42:51;21.50;48.80
16404;DHT22;8311;50.158;8.642;2022-09-17T17:45:45;21.50;48.90
16404;DHT22;8311;50.158;8.642;2022-09-17T17:48:38;21.50;48.80
16404;DHT22;8311;50.158;8.642;2022-09-17T17:51:31;21.50;48.80
16404;DHT22;8311;50.158;8.642;2022-09-17T17:54:25;21.50;48.80
16404;DHT22;8311;50.158;8.642;2022-09-17T17:57:20;21.40;48.80
16404;DHT22;8311;50.158;8.642;2022-09-17T18:00:13;21.40;48.80
16404;DHT22;8311;50.158;8.642;2022-09-17T18:03:09;21.50;48.80
16404;DHT22;8311;50.158;8.642;2022-09-17T18:06:04;21.50;48.80
16404;DHT22;8311;50.158;8.642;2022-09-17T18:08:58;21.50;48.80
16404;DHT22;8311;50.158;8.642;2022-09-17T18:11:53;21.50;48.80
16404;DHT22;8311;50.158;8.642;2022-09-17T18:14:46;21.50;48.80
16404;DHT22;8311;50.158;8.642;2022-09-17T18:17:39;21.50;48.70
16404;DHT22;8311;50.158;8.642;2022-09-17T18:20:32;21.50;48.70
16404;DHT22;8311;50.158;8.642;2022-09-17T18:23:25;21.50;48.80
16404;DHT22;8311;50.158;8.642;2022-09-17T18:26:20;21.50;48.60
16404;DHT22;8311;50.158;8.642;2022-09-17T18:29:15;21.40;48.40
16404;DHT22;8311;50.158;8.642;2022-09-17T18:32:09;21.40;48.20
16404;DHT22;8311;50.158;8.642;2022-09-17T18:35:02;21.40;48.00
16404;DHT22;8311;50.158;8.642;2022-09-17T18:37:55;21.40;47.80
16404;DHT22;8311;50.158;8.642;2022-09-17T18:40:48;21.40;47.70
16404;DHT22;8311;50.158;8.642;2022-09-17T18:43:41;21.40;47.60
16404;DHT22;8311;50.158;8.642;2022-09-17T18:46:36;21.40;47.50
16404;DHT22;8311;50.158;8.642;2022-09-17T18:49:29;21.40;47.40
16404;DHT22;8311;50.158;8.642;2022-09-17T18:52:22;21.40;47.90
16404;DHT22;8311;50.158;8.642;2022-09-17T18:55:15;21.40;47.20
16404;DHT22;8311;50.158;8.642;2022-09-17T18:58:08;21.40;47.20
16404;DHT22;8311;50.158;8.642;2022-09-17T19:01:04;21.40;47.10
16404;DHT22;8311;50.158;8.642;2022-09-17T19:03:59;21.40;47.00